Time;durP1;ratioP1;P1;durP2;ratioP2;P2;SDS_P1;SDS_P2;PMS_P1;PMS_P2;Temp;Humidity;BMP_temperature;BMP_pressure;BME280_temperature;BME280_humidity;BME280_pressure;Samples;Min_cycle;Max_cycle;Signal;HPM_P1;HPM_P2
2021/12/15 00:03:17;;;;;;;42.45;23.67;;;;;;;7.09;86.95;102782.88;10524681;28;20107;-82
2021/12/15 00:08:17;;;;;;;38.13;22.25;;;;;;;7.04;87.07;102781.53;10522970;28;20032;-82
2021/12/15 00:13:18;;;;;;;37.60;22.73;;;;;;;7.08;87.13;102780.09;10522103;28;20020;-82
2021/12/15 00:18:19;;;;;;;40.17;25.00;;;;;;;7.11;86.81;102769.97;10505961;28;20357;-82
2021/12/15 00:23:19;;;;;;;39.80;22.27;;;;;;;7.07;87.10;102784.41;10523901;28;20070;-82
2021/12/15 00:28:20;;;;;;;46.05;25.05;;;;;;;7.05;87.09;102779.03;10539950;28;20475;-82
2021/12/15 00:33:20;;;;;;;36.75;23.38;;;;;;;7.03;87.88;102780.59;10524278;28;20048;-82
2021/12/15 00:38:22;;;;;;;44.85;25.55;;;;;;;6.96;88.21;102783.41;10504643;28;20050;-83
2021/12/15 00:43:22;;;;;;;45.05;28.25;;;;;;;6.95;89.03;102796.28;10506227;28;20104;-83
2021/12/15 00:48:23;;;;;;;47.05;26.95;;;;;;;6.84;89.39;102784.84;10521717;28;20131;-83
2021/12/15 00:53:24;;;;;;;44.40;25.90;;;;;;;6.84;89.45;102790.06;10522616;28;20093;-83
2021/12/15 00:58:24;;;;;;;53.65;31.52;;;;;;;6.78;89.96;102780.00;10503957;28;20020;-83
2021/12/15 01:03:25;;;;;;;52.95;28.55;;;;;;;6.78;90.36;102787.81;10522285;28;20024;-83
2021/12/15 01:08:27;;;;;;;53.35;30.80;;;;;;;6.73;90.34;102787.38;10520879;28;20131;-83
2021/12/15 01:24:07;;;;;;;59.15;31.88;;;;;;;6.80;90.47;102782.75;10506651;28;20028;-82
2021/12/15 01:29:07;;;;;;;54.90;30.88;;;;;;;6.79;90.44;102778.31;10520307;28;20059;-82
2021/12/15 01:34:08;;;;;;;62.47;36.55;;;;;;;6.78;90.79;102782.63;10503184;28;20039;-82
2021/12/15 01:39:08;;;;;;;61.00;35.25;;;;;;;6.79;90.95;102778.31;10502845;28;20064;-82
2021/12/15 01:49:12;;;;;;;62.03;34.85;;;;;;;6.80;91.04;102774.94;10537958;28;20392;-82
2021/12/15 01:54:13;;;;;;;57.30;32.05;;;;;;;6.75;90.63;102785.81;10519148;28;20043;-82
2021/12/15 01:59:14;;;;;;;69.22;34.63;;;;;;;6.81;90.74;102781.97;10501871;28;20028;-82
2021/12/15 02:04:16;;;;;;;65.13;32.97;;;;;;;6.76;90.92;102786.75;10521113;28;20028;-82
2021/12/15 02:09:30;;;;;;;64.13;35.95;;;;;;;6.76;91.10;102777.25;10536472;28;20403;-82
2021/12/15 02:14:31;;;;;;;64.30;33.30;;;;;;;6.75;90.84;102793.63;10488879;28;20032;-82
2021/12/15 02:19:31;;;;;;;64.22;32.13;;;;;;;6.74;91.31;102799.59;10518965;28;20040;-82
2021/12/15 02:24:34;;;;;;;67.53;35.45;;;;;;;6.75;90.74;102793.63;10502627;28;20032;-82
2021/12/15 02:29:40;;;;;;;75.60;35.45;;;;;;;6.79;91.24;102799.13;10501968;28;20036;-82
2021/12/15 02:40:05;;;;;;;68.97;36.42;;;;;;;6.79;91.46;102794.84;10529419;28;20039;-82
2021/12/15 02:45:07;;;;;;;56.35;35.35;;;;;;;6.85;90.65;102789.28;10494128;28;20040;-83
2021/12/15 02:50:13;;;;;;;60.75;30.77;;;;;;;6.83;90.38;102789.16;10545109;28;20135;-83
2021/12/15 02:55:17;;;;;;;60.85;31.60;;;;;;;6.82;90.52;102795.13;10510690;28;20038;-82
2021/12/15 03:00:27;;;;;;;69.18;35.38;;;;;;;6.79;91.31;102789.66;10509751;28;20740;-82
2021/12/15 03:05:33;;;;;;;60.72;33.05;;;;;;;6.84;90.45;102788.38;10528377;28;20406;-82
2021/12/15 03:15:55;;;;;;;61.75;33.50;;;;;;;6.82;91.33;102796.81;10516244;28;20034;-82
2021/12/15 03:20:58;;;;;;;59.88;33.55;;;;;;;6.78;90.69;102795.63;10508021;28;20036;-82
2021/12/15 03:26:00;;;;;;;55.90;33.75;;;;;;;6.73;91.16;102786.47;10526383;28;20460;-82
2021/12/15 03:36:39;;;;;;;64.85;34.30;;;;;;;6.76;91.93;102791.97;10529051;28;20036;-82
2021/12/15 03:41:39;;;;;;;60.08;30.17;;;;;;;6.78;91.78;102790.41;10542278;28;20040;-82
2021/12/15 03:46:40;;;;;;;54.88;29.55;;;;;;;6.79;91.73;102792.25;10506729;28;20046;-82
2021/12/15 03:51:40;;;;;;;57.70;31.42;;;;;;;6.82;91.30;102792.53;10505635;28;20381;-82
2021/12/15 03:56:43;;;;;;;51.85;31.33;;;;;;;6.79;91.71;102800.06;10467428;28;20021;-82
2021/12/15 04:01:43;;;;;;;52.05;29.75;;;;;;;6.81;91.85;102806.31;10485652;28;20093;-82
2021/12/15 04:06:44;;;;;;;52.38;27.50;;;;;;;6.83;91.38;102811.66;10522642;28;20434;-82
2021/12/15 04:11:44;;;;;;;51.08;26.27;;;;;;;6.78;91.49;102800.81;10524969;28;20059;-80
2021/12/15 04:16:57;;;;;;;54.40;29.70;;;;;;;6.77;91.24;102796.41;10522899;28;20085;-82
2021/12/15 04:21:59;;;;;;;46.38;28.92;;;;;;;6.74;91.58;102803.91;10523516;28;20051;-82
2021/12/15 04:26:59;;;;;;;61.05;29.85;;;;;;;6.79;91.08;102809.53;10522493;28;20077;-82
2021/12/15 04:32:07;;;;;;;48.78;26.08;;;;;;;6.80;91.29;102811.38;10523113;28;20028;-82
2021/12/15 04:37:08;;;;;;;44.95;25.95;;;;;;;6.78;91.20;102811.25;10472181;28;20435;-82
2021/12/15 04:42:09;;;;;;;52.97;29.27;;;;;;;6.80;91.69;102817.50;10488539;28;20063;-82
2021/12/15 04:47:10;;;;;;;42.88;25.25;;;;;;;6.75;91.66;102819.66;10521556;28;20043;-82
2021/12/15 04:52:11;;;;;;;46.83;26.60;;;;;;;6.78;91.82;102813.84;10510052;28;20045;-82
2021/12/15 04:57:13;;;;;;;40.28;24.67;;;;;;;6.82;91.35;102825.44;10481031;28;20090;-82
2021/12/15 05:02:14;;;;;;;45.07;25.40;;;;;;;6.87;90.83;102829.41;10503333;28;20055;-82
2021/12/15 05:07:15;;;;;;;38.47;23.38;;;;;;;6.82;91.11;102826.38;10504996;28;20028;-82
2021/12/15 05:12:19;;;;;;;43.88;23.42;;;;;;;6.76;90.92;102821.50;10514490;28;20107;-81
2021/12/15 05:17:19;;;;;;;46.83;26.95;;;;;;;6.73;91.55;102822.91;10501563;28;20475;-82
2021/12/15 05:22:20;;;;;;;39.30;20.70;;;;;;;6.69;90.92;102833.78;10485700;28;20059;-82
2021/12/15 05:27:21;;;;;;;46.10;25.02;;;;;;;6.69;91.70;102844.19;10538439;28;20110;-82
2021/12/15 05:32:22;;;;;;;38.45;23.60;;;;;;;6.71;91.82;102832.25;10504273;28;20093;-82
2021/12/15 05:37:22;;;;;;;48.05;24.50;;;;;;;6.75;91.35;102840.47;10502956;28;20384;-82
2021/12/15 05:42:23;;;;;;;37.33;25.33;;;;;;;6.79;90.86;102846.91;10521035;28;20120;-82
2021/12/15 05:47:25;;;;;;;45.70;27.60;;;;;;;6.78;91.49;102850.28;10502654;28;20105;-82
2021/12/15 05:52:29;;;;;;;43.30;25.38;;;;;;;6.77;91.51;102848.44;10537536;28;20036;-82
2021/12/15 05:57:30;;;;;;;38.88;22.10;;;;;;;6.71;91.06;102851.38;10484199;28;20387;-83
2021/12/15 06:02:30;;;;;;;42.15;23.70;;;;;;;6.76;91.38;102850.13;10509112;28;20028;-79
2021/12/15 06:07:31;;;;;;;43.90;26.08;;;;;;;6.73;91.83;102854.13;10501478;28;20032;-78
2021/12/15 06:12:31;;;;;;;40.75;21.88;;;;;;;6.77;91.34;102845.84;10501138;28;20121;-79
2021/12/15 06:17:32;;;;;;;43.03;24.83;;;;;;;6.73;90.94;102849.81;10501927;28;20115;-79
2021/12/15 06:22:33;;;;;;;42.08;25.65;;;;;;;6.72;91.57;102857.50;10517746;28;20444;-87
2021/12/15 06:27:36;;;;;;;45.13;23.48;;;;;;;6.74;91.45;102868.97;10501699;28;20052;-83
2021/12/15 06:32:36;;;;;;;41.65;25.13;;;;;;;6.73;91.45;102868.03;10517489;28;20038;-84
2021/12/15 06:37:37;;;;;;;40.42;24.00;;;;;;;6.73;91.78;102868.03;10502078;28;20044;-84
2021/12/15 06:42:38;;;;;;;42.83;23.42;;;;;;;6.73;91.71;102874.94;10517337;28;20043;-84
2021/12/15 06:58:17;;;;;;;41.13;23.17;;;;;;;6.82;91.56;102874.91;10493511;28;20119;-84
2021/12/15 07:03:18;;;;;;;43.90;24.75;;;;;;;6.85;91.55;102875.19;10459035;28;20458;-85
2021/12/15 07:08:18;;;;;;;38.38;24.27;;;;;;;6.76;91.14;102889.16;10475298;28;20025;-83
2021/12/15 07:13:19;;;;;;;43.20;24.50;;;;;;;6.80;91.15;102894.66;10474834;28;20052;-84
2021/12/15 07:18:27;;;;;;;39.40;22.40;;;;;;;6.80;91.25;102894.66;10475898;28;20031;-84
2021/12/15 07:23:27;;;;;;;39.22;22.88;;;;;;;6.80;91.25;102899.88;10480108;28;20037;-84
2021/12/15 07:28:28;;;;;;;35.83;20.30;;;;;;;6.84;91.19;102902.91;10481373;28;20048;-83
2021/12/15 07:33:28;;;;;;;36.97;23.15;;;;;;;6.83;91.05;102908.91;10483288;28;20031;-83
2021/12/15 07:38:29;;;;;;;39.03;22.00;;;;;;;6.83;91.45;102915.78;10476760;28;20127;-78
2021/12/15 07:43:29;;;;;;;40.90;23.02;;;;;;;6.93;90.96;102915.88;10499506;28;20040;-78
2021/12/15 07:48:34;;;;;;;43.28;24.30;;;;;;;6.88;91.33;102927.53;10524133;28;20470;-83
2021/12/15 07:53:36;;;;;;;40.65;24.45;;;;;;;6.91;90.88;102933.03;10457888;28;20059;-82
2021/12/15 07:58:41;;;;;;;31.23;21.80;;;;;;;6.94;90.95;102933.34;10467445;28;20037;-83
2021/12/15 08:03:43;;;;;;;38.00;22.98;;;;;;;6.95;90.88;102929.06;10482116;28;20040;-83
2021/12/15 08:08:43;;;;;;;48.33;25.80;;;;;;;6.92;90.94;102927.06;10511549;28;20036;-83
2021/12/15 08:13:44;;;;;;;50.72;29.40;;;;;;;6.90;90.80;102931.22;10481708;28;20471;-83
2021/12/15 08:18:46;;;;;;;49.20;28.75;;;;;;;6.99;90.97;102933.78;10465292;28;20073;-83
2021/12/15 08:23:46;;;;;;;41.05;26.85;;;;;;;7.01;90.42;102940.97;10448261;28;20500;-82
2021/12/15 08:28:47;;;;;;;42.35;25.77;;;;;;;7.08;91.24;102938.94;10447185;28;20020;-82
2021/12/15 08:33:48;;;;;;;40.92;23.00;;;;;;;7.09;90.99;102949.53;10461912;28;20033;-83
2021/12/15 08:38:49;;;;;;;48.28;27.50;;;;;;;7.07;90.54;102945.84;10487829;28;20024;-82
2021/12/15 08:43:49;;;;;;;48.53;27.52;;;;;;;7.10;90.48;102948.75;10519732;28;20040;-83
2021/12/15 08:48:50;;;;;;;45.28;25.95;;;;;;;7.13;90.40;102950.72;10521246;28;20032;-83
2021/12/15 08:53:51;;;;;;;46.88;26.73;;;;;;;7.16;90.34;102945.78;10520401;28;20031;-83
2021/12/15 08:58:53;;;;;;;37.33;22.10;;;;;;;7.20;90.75;102947.91;10539449;28;20036;-81
2021/12/15 09:03:53;;;;;;;41.00;25.20;;;;;;;7.29;89.69;102951.38;10503724;28;20039;-85
2021/12/15 09:08:54;;;;;;;43.63;24.75;;;;;;;7.33;89.67;102953.50;10520216;28;20020;-78
2021/12/15 09:13:55;;;;;;;35.08;22.50;;;;;;;7.30;89.66;102963.66;10504801;28;20110;-82
2021/12/15 09:18:56;;;;;;;44.10;22.38;;;;;;;7.37;89.68;102954.75;10487639;28;20035;-83
2021/12/15 09:23:58;;;;;;;42.33;24.48;;;;;;;7.39;89.55;102958.41;10502449;28;20031;-81
2021/12/15 09:28:58;;;;;;;39.10;26.37;;;;;;;7.41;89.49;102966.34;10505015;28;20028;-81
2021/12/15 09:33:59;;;;;;;36.53;22.50;;;;;;;7.42;89.44;102970.78;10519500;28;20064;-81
2021/12/15 09:39:11;;;;;;;48.33;24.02;;;;;;;7.43;89.00;102967.41;10518713;28;20047;-82
2021/12/15 09:44:15;;;;;;;39.15;23.00;;;;;;;7.45;89.59;102966.78;10501914;28;20044;-81
2021/12/15 10:11:14;;;;;;;36.42;21.30;;;;;;;7.60;89.05;102976.81;10518918;28;20122;-81
2021/12/15 10:22:05;;;;;;;44.53;24.00;;;;;;;7.70;88.94;102986.41;10518097;28;20036;-79
2021/12/15 10:27:06;;;;;;;34.58;21.20;;;;;;;7.72;88.58;102983.19;10518158;28;20035;-86
2021/12/15 10:32:09;;;;;;;40.47;21.50;;;;;;;7.72;88.25;102982.25;10499928;28;20507;-79
2021/12/15 10:37:15;;;;;;;37.33;20.83;;;;;;;7.70;88.34;102983.78;10532087;28;20039;-85
2021/12/15 10:42:28;;;;;;;35.53;20.67;;;;;;;7.77;88.71;102979.31;10503134;28;20369;-78
2021/12/15 10:47:49;;;;;;;37.45;22.55;;;;;;;7.83;88.36;102984.16;10518306;28;20125;-84
2021/12/15 10:52:56;;;;;;;44.25;24.98;;;;;;;7.87;88.27;102981.06;10476621;28;20097;-79
2021/12/15 10:58:19;;;;;;;44.00;22.70;;;;;;;7.91;88.17;102985.78;10519979;28;20361;-82
2021/12/15 11:03:26;;;;;;;41.22;23.48;;;;;;;7.94;88.22;102982.56;10524856;28;20032;-82
2021/12/15 11:08:27;;;;;;;41.45;23.33;;;;;;;7.97;88.14;102976.69;10492147;28;20074;-77
2021/12/15 11:13:37;;;;;;;46.92;22.60;;;;;;;7.98;88.50;102975.94;10527368;28;20016;-77
2021/12/15 11:18:45;;;;;;;46.42;24.27;;;;;;;8.01;88.43;102981.41;10525466;28;20032;-84
2021/12/15 11:23:53;;;;;;;;;;;;;;;8.06;88.28;102969.72;10526957;28;20032;-83
2021/12/15 11:28:55;;;;;;;48.08;25.88;;;;;;;8.10;88.03;102969.22;10507032;28;19912;-82
2021/12/15 11:34:05;;;;;;;45.47;22.23;;;;;;;8.17;87.75;102971.63;10526554;28;20055;-83
2021/12/15 11:39:21;;;;;;;41.65;23.45;;;;;;;8.22;87.23;102961.63;10509114;28;20111;-82
2021/12/15 11:44:24;;;;;;;48.65;25.45;;;;;;;8.24;87.22;102965.28;10510116;28;20068;-82
2021/12/15 11:49:32;;;;;;;45.38;23.95;;;;;;;8.27;87.65;102957.75;10475448;28;20048;-82
2021/12/15 11:54:40;;;;;;;42.75;23.40;;;;;;;8.22;87.29;102967.75;10542246;28;20020;-84
2021/12/15 11:59:59;;;;;;;44.42;25.95;;;;;;;8.19;87.88;102969.16;10493392;28;20039;-85
2021/12/15 12:05:08;;;;;;;46.22;26.02;;;;;;;8.22;87.95;102965.13;10507509;28;20063;-82
2021/12/15 12:10:49;;;;;;;47.70;25.70;;;;;;;8.22;87.68;102966.84;10510561;28;20036;-84
2021/12/15 12:15:57;;;;;;;52.05;27.20;;;;;;;8.28;87.64;102964.78;10512171;28;20052;-85
2021/12/15 12:21:07;;;;;;;46.60;26.83;;;;;;;8.44;87.51;102960.94;10507257;28;20039;-83
2021/12/15 12:26:10;;;;;;;44.72;25.92;;;;;;;8.44;87.09;102953.13;10522880;28;20425;-83
2021/12/15 12:31:18;;;;;;;48.78;25.70;;;;;;;8.53;86.96;102956.59;10473134;28;20034;-83
2021/12/15 12:36:26;;;;;;;53.67;28.30;;;;;;;8.59;86.31;102958.81;10507676;28;20062;-82
2021/12/15 12:41:29;;;;;;;46.35;24.92;;;;;;;8.72;85.79;102948.69;10538662;28;20127;-83
2021/12/15 12:46:43;;;;;;;39.85;24.45;;;;;;;8.77;85.74;102946.50;10522008;28;20044;-83
2021/12/15 13:02:45;;;;;;;37.87;24.97;;;;;;;8.73;85.23;102918.28;10468743;28;20075;-82
2021/12/15 13:07:46;;;;;;;37.95;23.20;;;;;;;8.71;85.39;102930.28;10469699;28;20044;-84
2021/12/15 13:12:49;;;;;;;43.13;24.67;;;;;;;8.70;85.03;102925.84;10488892;28;20028;-85
2021/12/15 13:18:02;;;;;;;45.67;25.05;;;;;;;8.56;85.29;102928.16;10461615;28;20025;-83
2021/12/15 13:23:19;;;;;;;44.33;27.73;;;;;;;8.50;85.70;102925.00;10462089;28;20112;-83
2021/12/15 13:28:43;;;;;;;45.08;24.20;;;;;;;8.49;85.65;102921.47;10464134;28;20116;-83
2021/12/15 13:33:50;;;;;;;38.35;23.50;;;;;;;8.51;85.55;102925.13;10451284;28;20040;-81
2021/12/15 13:39:05;;;;;;;41.72;25.35;;;;;;;8.51;85.54;102922.50;10475250;28;20483;-81
2021/12/15 13:44:19;;;;;;;35.78;22.30;;;;;;;8.51;85.14;102925.13;10492493;28;20044;-82
2021/12/15 13:49:38;;;;;;;40.78;22.35;;;;;;;8.45;85.66;102924.53;10468824;28;20476;-81
2021/12/15 13:54:39;;;;;;;42.17;24.98;;;;;;;8.45;85.92;102923.63;10506676;28;20040;-80
2021/12/15 13:59:44;;;;;;;38.28;22.83;;;;;;;8.49;85.67;102923.16;10520184;28;20480;-80
2021/12/15 14:04:55;;;;;;;32.60;21.15;;;;;;;8.49;84.97;102928.38;10509489;28;20016;-79
2021/12/15 14:09:55;;;;;;;37.33;21.63;;;;;;;8.43;85.25;102936.53;10461857;28;20020;-79
2021/12/15 14:14:57;;;;;;;35.35;20.75;;;;;;;8.36;85.93;102939.38;10492163;28;20040;-78
2021/12/15 14:20:10;;;;;;;41.15;23.45;;;;;;;8.30;86.35;102941.44;10537255;28;20036;-78
2021/12/15 14:25:37;;;;;;;41.03;24.58;;;;;;;8.26;85.90;102947.16;10493144;28;20472;-77
2021/12/15 14:30:59;;;;;;;33.25;23.33;;;;;;;8.29;85.81;102952.63;10536689;28;20036;-77
2021/12/15 14:36:22;;;;;;;37.45;24.02;;;;;;;8.19;86.31;102943.09;10495492;28;20514;-77
2021/12/15 14:41:32;;;;;;;42.35;26.10;;;;;;;8.18;86.41;102955.19;10510757;28;20170;-77
2021/12/15 14:47:27;;;;;;;38.22;22.48;;;;;;;8.11;86.86;102960.63;10527257;28;20036;-77
2021/12/15 14:52:58;;;;;;;41.22;25.23;;;;;;;8.03;87.11;102962.56;10398830;28;20041;-78
2021/12/15 14:58:14;;;;;;;49.95;28.13;;;;;;;8.03;86.81;102964.22;10511699;28;20119;-84
2021/12/15 15:03:26;;;;;;;37.70;22.10;;;;;;;7.93;87.15;102966.00;10483178;28;20041;-78
2021/12/15 15:08:31;;;;;;;49.05;28.83;;;;;;;7.86;87.21;102976.63;10508004;28;20020;-90
2021/12/15 15:13:35;;;;;;;45.17;28.25;;;;;;;7.91;87.53;102980.56;10491852;28;20491;-89
2021/12/15 15:18:38;;;;;;;41.27;24.83;;;;;;;7.96;86.78;102982.69;10510621;28;20123;-89
2021/12/15 15:23:42;;;;;;;44.42;27.05;;;;;;;7.82;87.22;102986.66;10529584;28;20297;-89
2021/12/15 15:28:49;;;;;;;49.28;24.60;;;;;;;7.71;88.19;102988.22;10482480;28;20035;-90
2021/12/15 15:33:52;;;;;;;43.35;26.80;;;;;;;7.68;87.86;102996.69;10451206;28;20089;-88
2021/12/15 15:38:54;;;;;;;44.33;26.27;;;;;;;7.67;88.14;103004.38;10486658;28;20486;-87
2021/12/15 15:43:57;;;;;;;45.77;28.20;;;;;;;7.69;88.40;103014.19;10483310;28;20107;-87
2021/12/15 15:48:58;;;;;;;42.67;24.77;;;;;;;7.70;88.06;103015.06;10457344;28;20046;-89
2021/12/15 15:54:02;;;;;;;48.58;29.40;;;;;;;7.70;88.50;103009.88;10493561;28;20047;-84
2021/12/15 15:59:09;;;;;;;49.53;27.30;;;;;;;7.67;88.53;103015.72;10477057;28;20055;-88
2021/12/15 16:04:16;;;;;;;44.40;29.45;;;;;;;7.72;88.42;103017.06;10492757;28;20020;-91
2021/12/15 16:09:22;;;;;;;41.10;26.45;;;;;;;7.72;87.91;103017.06;10453652;28;20032;-89
2021/12/15 16:14:25;;;;;;;43.10;28.60;;;;;;;7.73;88.17;103026.72;10501974;28;20093;-91
2021/12/15 16:19:36;;;;;;;;;;;;;;;7.68;88.11;103024.44;10502498;28;20032;-91
2021/12/15 16:24:38;;;;;;;46.83;29.77;;;;;;;7.65;88.63;103035.50;10509391;28;19916;-90
2021/12/15 16:29:39;;;;;;;51.08;30.10;;;;;;;7.66;88.26;103033.81;10483389;28;20097;-91
2021/12/15 16:34:42;;;;;;;45.45;29.02;;;;;;;7.67;88.08;103054.81;10488431;28;20065;-89
2021/12/15 16:39:44;;;;;;;50.45;28.45;;;;;;;7.66;88.18;103052.97;10477911;28;20500;-90
2021/12/15 16:44:57;;;;;;;51.95;29.15;;;;;;;7.63;88.21;103051.00;10483094;28;20059;-85
2021/12/15 16:49:58;;;;;;;46.05;28.70;;;;;;;7.57;88.46;103063.44;10460955;28;20040;-88
2021/12/15 16:54:59;;;;;;;53.17;29.52;;;;;;;7.56;88.77;103064.22;10492376;28;20024;-89
2021/12/15 17:00:05;;;;;;;53.00;31.52;;;;;;;7.52;88.36;103066.41;10503670;28;20040;-92
2021/12/15 17:05:16;;;;;;;50.53;29.85;;;;;;;7.48;88.67;103067.78;10489831;28;20182;-92
2021/12/15 17:10:34;;;;;;;44.60;28.95;;;;;;;7.49;89.39;103072.22;10477559;28;20040;-92
2021/12/15 17:15:52;;;;;;;51.10;29.75;;;;;;;7.48;89.34;103072.97;10486034;28;20085;-92
2021/12/15 17:21:00;;;;;;;51.53;28.98;;;;;;;7.42;88.80;103075.94;10481173;28;20028;-91
2021/12/15 17:26:07;;;;;;;55.03;29.38;;;;;;;7.46;88.81;103091.09;10476602;28;20035;-88
2021/12/15 17:31:21;;;;;;;50.03;30.58;;;;;;;7.43;89.09;103089.88;10501032;28;20082;-88
2021/12/15 17:36:31;;;;;;;48.88;29.83;;;;;;;7.48;89.23;103073.91;10518280;28;20118;-85
2021/12/15 17:41:45;;;;;;;56.33;33.42;;;;;;;7.48;88.85;103078.19;10501882;28;20430;-85
2021/12/15 17:46:53;;;;;;;50.75;31.50;;;;;;;7.47;89.15;103084.19;10512302;28;20032;-84
2021/12/15 17:51:56;;;;;;;52.17;30.77;;;;;;;7.45;89.14;103099.69;10519114;28;20089;-85
2021/12/15 17:56:57;;;;;;;52.80;30.88;;;;;;;7.43;89.85;103082.03;10511452;28;20042;-93
2021/12/15 18:01:59;;;;;;;56.67;33.20;;;;;;;7.37;89.36;103087.59;10500641;28;20042;-92
2021/12/15 18:06:59;;;;;;;57.87;34.60;;;;;;;7.35;89.54;103100.47;10517627;28;20039;-88
2021/12/15 18:12:02;;;;;;;59.90;37.47;;;;;;;7.35;89.50;103102.16;10520127;28;20032;-89
2021/12/15 18:17:03;;;;;;;58.75;35.90;;;;;;;7.39;89.66;103104.31;10478906;28;20422;-91
2021/12/15 18:22:04;;;;;;;62.13;35.38;;;;;;;7.35;89.35;103120.41;10537789;28;20124;-85
2021/12/15 18:27:05;;;;;;;68.15;35.88;;;;;;;7.42;90.36;103107.19;10517731;28;20047;-92
2021/12/15 18:32:09;;;;;;;73.03;38.33;;;;;;;7.47;89.54;103094.59;10518408;28;20020;-85
2021/12/15 18:37:11;;;;;;;60.35;36.58;;;;;;;7.41;89.48;103114.84;10532786;28;20024;-85
2021/12/15 18:42:12;;;;;;;65.43;38.20;;;;;;;7.41;89.29;103120.06;10519428;28;20044;-93
2021/12/15 18:47:13;;;;;;;66.32;41.08;;;;;;;7.41;89.46;103125.28;10533274;28;20041;-92
2021/12/15 18:52:14;;;;;;;67.82;40.13;;;;;;;7.42;89.72;103114.09;10478263;28;20039;-88
2021/12/15 18:57:15;;;;;;;68.70;40.72;;;;;;;7.36;89.37;103124.84;10502075;28;20035;-89
2021/12/15 19:02:17;;;;;;;71.50;41.15;;;;;;;7.37;89.55;103128.34;10523529;28;20028;-90
2021/12/15 19:07:18;;;;;;;65.22;39.78;;;;;;;7.34;89.53;103129.00;10510061;28;20127;-89
2021/12/15 19:12:19;;;;;;;76.97;45.05;;;;;;;7.34;89.91;103126.38;10499216;28;20059;-82
2021/12/15 19:17:20;;;;;;;78.38;44.88;;;;;;;7.38;90.09;103140.59;10534310;28;20108;-81
2021/12/15 19:22:21;;;;;;;72.38;38.92;;;;;;;7.35;89.93;103141.25;10490775;28;20123;-87
2021/12/15 19:27:22;;;;;;;82.93;46.42;;;;;;;7.31;89.77;103146.94;10522400;28;20024;-85
2021/12/15 19:32:24;;;;;;;73.53;43.85;;;;;;;7.35;89.81;103152.56;10505805;28;20030;-82
2021/12/15 19:37:26;;;;;;;72.57;43.30;;;;;;;7.39;89.87;103169.44;10525817;28;20028;-81
2021/12/15 19:42:26;;;;;;;73.25;42.58;;;;;;;7.36;89.33;103161.31;10520691;28;20032;-86
2021/12/15 19:47:27;;;;;;;83.05;49.58;;;;;;;7.35;89.79;103141.25;10477732;28;20044;-81
2021/12/15 19:52:34;;;;;;;83.82;45.83;;;;;;;7.38;89.97;103153.63;10523130;28;20056;-82
2021/12/15 19:57:41;;;;;;;80.40;44.35;;;;;;;7.40;89.73;103149.50;10508417;28;20032;-82
2021/12/15 20:02:45;;;;;;;70.97;43.00;;;;;;;7.39;89.63;103152.88;10495742;28;20040;-81
2021/12/15 20:07:49;;;;;;;78.70;41.60;;;;;;;7.34;89.13;103145.53;10507854;28;20772;-83
2021/12/15 20:12:55;;;;;;;79.97;42.25;;;;;;;7.33;89.51;103166.22;10522172;28;20039;-85
2021/12/15 20:17:56;;;;;;;83.07;47.40;;;;;;;7.28;90.14;103151.84;10506008;28;20032;-82
2021/12/15 20:22:56;;;;;;;86.47;46.83;;;;;;;7.25;90.22;103175.88;10521922;28;20074;-82
2021/12/15 20:27:57;;;;;;;83.93;43.05;;;;;;;7.27;89.56;103168.22;10505176;28;20110;-82
2021/12/15 20:32:59;;;;;;;93.43;46.67;;;;;;;7.25;89.55;103178.47;10519881;28;20545;-87
2021/12/15 20:38:01;;;;;;;79.53;46.05;;;;;;;7.34;89.91;103168.06;10540742;28;20028;-86
2021/12/15 20:43:06;;;;;;;81.37;44.17;;;;;;;7.29;89.71;103175.41;10517247;28;20047;-82
2021/12/15 20:48:07;;;;;;;82.25;46.70;;;;;;;7.23;89.91;103173.91;10497953;28;20043;-83
2021/12/15 20:53:11;;;;;;;86.90;47.88;;;;;;;7.27;89.63;103182.16;10522463;28;20043;-91
2021/12/15 20:58:11;;;;;;;;;;;;;;;7.25;89.94;103182.78;10505916;28;20062;-91
2021/12/15 21:03:12;;;;;;;78.68;47.63;;;;;;;7.20;89.61;103179.72;10520602;28;19963;-85
2021/12/15 21:08:12;;;;;;;82.82;47.47;;;;;;;7.22;89.96;103186.00;10521953;28;20024;-84
2021/12/15 21:13:13;;;;;;;81.18;46.95;;;;;;;7.18;90.03;103176.03;10540096;28;20040;-84
2021/12/15 21:18:14;;;;;;;82.57;46.85;;;;;;;7.23;89.69;103177.41;10505417;28;20101;-84
2021/12/15 21:23:15;;;;;;;85.00;46.13;;;;;;;7.14;89.63;103180.06;10520716;28;20039;-84
2021/12/15 21:28:17;;;;;;;82.28;46.22;;;;;;;7.13;90.06;103183.41;10486899;28;20123;-84
2021/12/15 21:33:18;;;;;;;;;;;;;;;7.20;90.66;103182.31;10521198;28;20157;-84
2021/12/15 21:38:18;;;;;;;88.18;46.22;;;;;;;7.15;90.24;103186.16;10519721;28;20667;-84
2021/12/15 21:43:20;;;;;;;80.25;45.30;;;;;;;7.15;90.47;103186.16;10503595;28;20047;-85
2021/12/15 21:48:20;;;;;;;86.17;47.07;;;;;;;7.07;90.54;103189.69;10520296;28;20563;-85
2021/12/15 21:53:22;;;;;;;80.93;45.83;;;;;;;7.05;90.18;103195.66;10521897;28;20076;-84
2021/12/15 21:58:25;;;;;;;92.85;47.65;;;;;;;7.03;91.06;103189.38;10518828;28;20519;-85
2021/12/15 22:03:30;;;;;;;80.60;45.13;;;;;;;7.15;90.36;103192.31;10462369;28;20468;-84
2021/12/15 22:08:34;;;;;;;77.95;45.38;;;;;;;7.11;89.92;103195.38;10498109;28;20071;-85
2021/12/15 22:13:35;;;;;;;77.30;46.05;;;;;;;7.10;90.18;103205.63;10518875;28;20027;-84
2021/12/15 22:18:40;;;;;;;90.15;47.60;;;;;;;7.16;90.01;103195.81;10501512;28;20027;-84
2021/12/15 22:23:43;;;;;;;93.32;47.50;;;;;;;7.09;90.32;103209.94;10503654;28;20396;-84
2021/12/15 22:28:43;;;;;;;79.50;46.15;;;;;;;7.09;90.58;103202.13;10502731;28;20107;-84
2021/12/15 22:33:44;;;;;;;85.60;47.90;;;;;;;7.02;90.69;103202.28;10518348;28;20103;-84
2021/12/15 22:38:44;;;;;;;80.90;51.88;;;;;;;6.98;90.39;103214.03;10501343;28;20116;-84
2021/12/15 22:43:47;;;;;;;91.35;50.67;;;;;;;6.93;90.24;103212.66;10518002;28;20132;-85
2021/12/15 22:48:48;;;;;;;76.32;46.88;;;;;;;6.98;90.78;103215.75;10519869;28;20044;-85
2021/12/15 22:53:48;;;;;;;87.53;46.40;;;;;;;7.00;90.60;103222.03;10521786;28;20421;-85
2021/12/15 22:58:49;;;;;;;89.95;48.22;;;;;;;6.96;90.80;103218.19;10525723;28;20056;-84
2021/12/15 23:03:51;;;;;;;91.13;49.80;;;;;;;6.97;90.95;103220.03;10526916;28;20036;-85
2021/12/15 23:08:51;;;;;;;97.97;53.97;;;;;;;6.94;90.57;103230.13;10510308;28;20024;-85
2021/12/15 23:13:54;;;;;;;90.32;48.47;;;;;;;6.96;90.64;103228.59;10525612;28;20028;-86
2021/12/15 23:18:55;;;;;;;95.68;51.00;;;;;;;6.93;90.99;103227.38;10492908;28;20040;-85
2021/12/15 23:23:55;;;;;;;93.07;50.17;;;;;;;6.91;91.27;103229.81;10526493;28;20028;-85
2021/12/15 23:28:58;;;;;;;85.18;50.38;;;;;;;6.93;90.82;103237.81;10542924;28;20086;-85
2021/12/15 23:33:59;;;;;;;93.45;53.58;;;;;;;6.90;91.00;103234.13;10509758;28;20393;-84
